sensor_id;sensor_type;location;lat;lon;timestamp;P1;durP1;ratioP1;P2;durP2;ratioP2
15067;SDS011;7633;60.024;18.770;2023-02-01T00:02:02;1.83;;;0.77;;
15067;SDS011;7633;60.024;18.770;2023-02-01T00:04:27;1.73;;;0.60;;
15067;SDS011;7633;60.024;18.770;2023-02-01T00:06:53;1.80;;;0.70;;
15067;SDS011;7633;60.024;18.770;2023-02-01T00:09:18;1.33;;;0.70;;
15067;SDS011;7633;60.024;18.770;2023-02-01T00:11:43;1.17;;;0.63;;
15067;SDS011;7633;60.024;18.770;2023-02-01T00:14:09;1.83;;;0.60;;
15067;SDS011;7633;60.024;18.770;2023-02-01T00:16:34;1.67;;;0.40;;
15067;SDS011;7633;60.024;18.770;2023-02-01T00:19:01;3.23;;;0.70;;
15067;SDS011;7633;60.024;18.770;2023-02-01T00:21:27;1.23;;;0.70;;
15067;SDS011;7633;60.024;18.770;2023-02-01T00:23:53;0.50;;;0.50;;
15067;SDS011;7633;60.024;18.770;2023-02-01T00:26:20;0.60;;;0.40;;
15067;SDS011;7633;60.024;18.770;2023-02-01T00:28:47;0.93;;;0.50;;
15067;SDS011;7633;60.024;18.770;2023-02-01T00:31:12;0.87;;;0.60;;
15067;SDS011;7633;60.024;18.770;2023-02-01T00:33:37;1.20;;;0.40;;
15067;SDS011;7633;60.024;18.770;2023-02-01T00:36:04;0.77;;;0.50;;
15067;SDS011;7633;60.024;18.770;2023-02-01T00:38:29;1.03;;;0.30;;
15067;SDS011;7633;60.024;18.770;2023-02-01T00:41:01;0.60;;;0.43;;
15067;SDS011;7633;60.024;18.770;2023-02-01T00:43:27;0.97;;;0.70;;
15067;SDS011;7633;60.024;18.770;2023-02-01T00:45:52;2.70;;;0.50;;
15067;SDS011;7633;60.024;18.770;2023-02-01T00:48:17;0.33;;;0.30;;
15067;SDS011;7633;60.024;18.770;2023-02-01T00:50:43;1.50;;;0.47;;
15067;SDS011;7633;60.024;18.770;2023-02-01T00:53:09;1.43;;;0.33;;
15067;SDS011;7633;60.024;18.770;2023-02-01T00:55:34;0.83;;;0.40;;
15067;SDS011;7633;60.024;18.770;2023-02-01T00:57:59;1.33;;;0.30;;
15067;SDS011;7633;60.024;18.770;2023-02-01T01:00:25;0.37;;;0.37;;
15067;SDS011;7633;60.024;18.770;2023-02-01T01:02:50;0.83;;;0.40;;
15067;SDS011;7633;60.024;18.770;2023-02-01T01:05:16;0.70;;;0.60;;
15067;SDS011;7633;60.024;18.770;2023-02-01T01:07:41;0.47;;;0.47;;
15067;SDS011;7633;60.024;18.770;2023-02-01T01:10:07;0.80;;;0.50;;
15067;SDS011;7633;60.024;18.770;2023-02-01T01:12:32;1.30;;;0.60;;
15067;SDS011;7633;60.024;18.770;2023-02-01T01:14:57;0.80;;;0.50;;
15067;SDS011;7633;60.024;18.770;2023-02-01T01:17:23;2.83;;;0.47;;
15067;SDS011;7633;60.024;18.770;2023-02-01T01:19:48;0.77;;;0.50;;
15067;SDS011;7633;60.024;18.770;2023-02-01T01:22:13;2.13;;;0.60;;
15067;SDS011;7633;60.024;18.770;2023-02-01T01:24:39;3.43;;;0.70;;
15067;SDS011;7633;60.024;18.770;2023-02-01T01:27:04;0.40;;;0.30;;
15067;SDS011;7633;60.024;18.770;2023-02-01T01:29:29;1.13;;;0.60;;
15067;SDS011;7633;60.024;18.770;2023-02-01T01:31:55;1.43;;;0.80;;
15067;SDS011;7633;60.024;18.770;2023-02-01T01:34:20;0.93;;;0.77;;
15067;SDS011;7633;60.024;18.770;2023-02-01T01:36:45;0.67;;;0.60;;
15067;SDS011;7633;60.024;18.770;2023-02-01T01:39:11;1.20;;;0.50;;
15067;SDS011;7633;60.024;18.770;2023-02-01T01:41:36;0.87;;;0.50;;
15067;SDS011;7633;60.024;18.770;2023-02-01T01:44:02;0.57;;;0.50;;
15067;SDS011;7633;60.024;18.770;2023-02-01T01:46:33;0.60;;;0.40;;
15067;SDS011;7633;60.024;18.770;2023-02-01T01:49:01;1.53;;;0.83;;
15067;SDS011;7633;60.024;18.770;2023-02-01T01:51:28;1.33;;;0.70;;
15067;SDS011;7633;60.024;18.770;2023-02-01T01:54:14;0.93;;;0.50;;
15067;SDS011;7633;60.024;18.770;2023-02-01T01:56:42;2.23;;;0.70;;
15067;SDS011;7633;60.024;18.770;2023-02-01T01:59:08;0.67;;;0.50;;
15067;SDS011;7633;60.024;18.770;2023-02-01T02:01:33;0.40;;;0.30;;
15067;SDS011;7633;60.024;18.770;2023-02-01T02:03:59;0.73;;;0.50;;
15067;SDS011;7633;60.024;18.770;2023-02-01T02:09:10;4.90;;;0.60;;
15067;SDS011;7633;60.024;18.770;2023-02-01T02:11:36;0.40;;;0.33;;
15067;SDS011;7633;60.024;18.770;2023-02-01T02:14:01;1.63;;;0.63;;
15067;SDS011;7633;60.024;18.770;2023-02-01T02:19:28;1.07;;;0.70;;
15067;SDS011;7633;60.024;18.770;2023-02-01T02:35:59;1.10;;;0.80;;
15067;SDS011;7633;60.024;18.770;2023-02-01T02:38:32;0.63;;;0.53;;
15067;SDS011;7633;60.024;18.770;2023-02-01T02:41:19;0.73;;;0.70;;
15067;SDS011;7633;60.024;18.770;2023-02-01T02:44:08;1.90;;;0.77;;
15067;SDS011;7633;60.024;18.770;2023-02-01T02:46:53;0.50;;;0.50;;
15067;SDS011;7633;60.024;18.770;2023-02-01T02:49:40;1.27;;;0.70;;
15067;SDS011;7633;60.024;18.770;2023-02-01T02:52:12;1.53;;;0.50;;
15067;SDS011;7633;60.024;18.770;2023-02-01T02:54:57;2.67;;;0.57;;
15067;SDS011;7633;60.024;18.770;2023-02-01T02:57:26;1.60;;;0.60;;
15067;SDS011;7633;60.024;18.770;2023-02-01T03:00:12;1.87;;;1.03;;
15067;SDS011;7633;60.024;18.770;2023-02-01T03:02:58;0.50;;;0.50;;
15067;SDS011;7633;60.024;18.770;2023-02-01T03:05:46;1.53;;;0.60;;
15067;SDS011;7633;60.024;18.770;2023-02-01T03:08:17;1.17;;;0.60;;
15067;SDS011;7633;60.024;18.770;2023-02-01T03:13:42;1.10;;;0.50;;
15067;SDS011;7633;60.024;18.770;2023-02-01T03:16:12;1.07;;;0.63;;
15067;SDS011;7633;60.024;18.770;2023-02-01T03:21:12;1.03;;;0.60;;
15067;SDS011;7633;60.024;18.770;2023-02-01T03:23:39;1.70;;;0.60;;
15067;SDS011;7633;60.024;18.770;2023-02-01T03:26:05;0.40;;;0.40;;
15067;SDS011;7633;60.024;18.770;2023-02-01T03:28:33;0.97;;;0.50;;
15067;SDS011;7633;60.024;18.770;2023-02-01T03:30:59;1.07;;;0.60;;
15067;SDS011;7633;60.024;18.770;2023-02-01T03:33:25;1.13;;;0.60;;
15067;SDS011;7633;60.024;18.770;2023-02-01T03:38:25;0.87;;;0.47;;
15067;SDS011;7633;60.024;18.770;2023-02-01T03:40:54;0.80;;;0.40;;
15067;SDS011;7633;60.024;18.770;2023-02-01T03:43:22;2.23;;;0.57;;
15067;SDS011;7633;60.024;18.770;2023-02-01T03:45:56;2.77;;;0.83;;
15067;SDS011;7633;60.024;18.770;2023-02-01T03:48:23;1.27;;;0.60;;
15067;SDS011;7633;60.024;18.770;2023-02-01T03:50:52;1.07;;;0.53;;
15067;SDS011;7633;60.024;18.770;2023-02-01T03:53:19;1.07;;;0.60;;
15067;SDS011;7633;60.024;18.770;2023-02-01T03:55:46;3.33;;;0.60;;
15067;SDS011;7633;60.024;18.770;2023-02-01T04:00:39;1.90;;;0.63;;
15067;SDS011;7633;60.024;18.770;2023-02-01T04:03:05;0.60;;;0.57;;
15067;SDS011;7633;60.024;18.770;2023-02-01T04:05:31;1.43;;;0.70;;
15067;SDS011;7633;60.024;18.770;2023-02-01T04:07:57;0.80;;;0.53;;
15067;SDS011;7633;60.024;18.770;2023-02-01T04:10:22;2.53;;;0.70;;
15067;SDS011;7633;60.024;18.770;2023-02-01T04:12:47;3.23;;;0.90;;
15067;SDS011;7633;60.024;18.770;2023-02-01T04:15:13;0.40;;;0.40;;
15067;SDS011;7633;60.024;18.770;2023-02-01T04:17:38;0.67;;;0.50;;
15067;SDS011;7633;60.024;18.770;2023-02-01T04:20:03;0.87;;;0.40;;
15067;SDS011;7633;60.024;18.770;2023-02-01T04:22:29;4.03;;;0.80;;
15067;SDS011;7633;60.024;18.770;2023-02-01T04:24:55;0.50;;;0.43;;
15067;SDS011;7633;60.024;18.770;2023-02-01T04:27:20;0.97;;;0.50;;
15067;SDS011;7633;60.024;18.770;2023-02-01T04:29:46;2.00;;;0.73;;
15067;SDS011;7633;60.024;18.770;2023-02-01T04:32:11;0.90;;;0.80;;
15067;SDS011;7633;60.024;18.770;2023-02-01T04:34:37;2.00;;;0.90;;
15067;SDS011;7633;60.024;18.770;2023-02-01T04:37:02;3.20;;;0.67;;
15067;SDS011;7633;60.024;18.770;2023-02-01T04:39:27;3.40;;;0.60;;
15067;SDS011;7633;60.024;18.770;2023-02-01T04:41:53;2.43;;;0.77;;
15067;SDS011;7633;60.024;18.770;2023-02-01T04:44:18;1.13;;;0.70;;
15067;SDS011;7633;60.024;18.770;2023-02-01T04:46:44;0.97;;;0.60;;
15067;SDS011;7633;60.024;18.770;2023-02-01T04:49:10;1.03;;;0.53;;
15067;SDS011;7633;60.024;18.770;2023-02-01T04:51:36;0.93;;;0.77;;
15067;SDS011;7633;60.024;18.770;2023-02-01T04:54:01;0.93;;;0.67;;
15067;SDS011;7633;60.024;18.770;2023-02-01T04:56:27;0.60;;;0.60;;
15067;SDS011;7633;60.024;18.770;2023-02-01T04:58:52;1.17;;;0.50;;
15067;SDS011;7633;60.024;18.770;2023-02-01T05:01:18;2.63;;;0.70;;
15067;SDS011;7633;60.024;18.770;2023-02-01T05:03:43;2.03;;;0.80;;
15067;SDS011;7633;60.024;18.770;2023-02-01T05:06:09;2.10;;;0.60;;
15067;SDS011;7633;60.024;18.770;2023-02-01T05:08:34;0.93;;;0.57;;
15067;SDS011;7633;60.024;18.770;2023-02-01T05:10:59;1.23;;;0.67;;
15067;SDS011;7633;60.024;18.770;2023-02-01T05:13:27;0.67;;;0.67;;
15067;SDS011;7633;60.024;18.770;2023-02-01T05:16:11;3.20;;;0.70;;
15067;SDS011;7633;60.024;18.770;2023-02-01T05:18:36;2.20;;;0.70;;
15067;SDS011;7633;60.024;18.770;2023-02-01T05:21:02;1.20;;;0.63;;
15067;SDS011;7633;60.024;18.770;2023-02-01T05:23:27;0.57;;;0.50;;
15067;SDS011;7633;60.024;18.770;2023-02-01T05:25:57;1.50;;;0.67;;
15067;SDS011;7633;60.024;18.770;2023-02-01T05:28:22;1.70;;;0.73;;
15067;SDS011;7633;60.024;18.770;2023-02-01T05:30:48;0.97;;;0.80;;
15067;SDS011;7633;60.024;18.770;2023-02-01T05:33:13;1.63;;;0.70;;
15067;SDS011;7633;60.024;18.770;2023-02-01T05:35:38;2.37;;;1.03;;
15067;SDS011;7633;60.024;18.770;2023-02-01T05:38:04;1.60;;;0.67;;
15067;SDS011;7633;60.024;18.770;2023-02-01T05:40:29;0.90;;;0.60;;
15067;SDS011;7633;60.024;18.770;2023-02-01T05:42:54;3.27;;;0.60;;
15067;SDS011;7633;60.024;18.770;2023-02-01T05:45:20;0.83;;;0.70;;
15067;SDS011;7633;60.024;18.770;2023-02-01T05:47:45;2.63;;;0.60;;
15067;SDS011;7633;60.024;18.770;2023-02-01T05:50:10;1.43;;;0.67;;
15067;SDS011;7633;60.024;18.770;2023-02-01T05:52:36;1.33;;;0.67;;
15067;SDS011;7633;60.024;18.770;2023-02-01T05:55:01;1.27;;;0.80;;
15067;SDS011;7633;60.024;18.770;2023-02-01T05:57:26;2.27;;;0.90;;
15067;SDS011;7633;60.024;18.770;2023-02-01T05:59:51;0.60;;;0.50;;
15067;SDS011;7633;60.024;18.770;2023-02-01T06:02:17;0.83;;;0.63;;
15067;SDS011;7633;60.024;18.770;2023-02-01T06:04:42;1.17;;;0.80;;
15067;SDS011;7633;60.024;18.770;2023-02-01T06:07:08;0.73;;;0.63;;
15067;SDS011;7633;60.024;18.770;2023-02-01T06:09:35;2.90;;;0.90;;
15067;SDS011;7633;60.024;18.770;2023-02-01T06:12:01;0.90;;;0.77;;
15067;SDS011;7633;60.024;18.770;2023-02-01T06:14:27;1.80;;;0.80;;
15067;SDS011;7633;60.024;18.770;2023-02-01T06:16:53;1.13;;;0.77;;
15067;SDS011;7633;60.024;18.770;2023-02-01T06:19:18;1.00;;;0.70;;
15067;SDS011;7633;60.024;18.770;2023-02-01T06:21:43;1.00;;;0.70;;
15067;SDS011;7633;60.024;18.770;2023-02-01T06:24:09;3.30;;;0.77;;
15067;SDS011;7633;60.024;18.770;2023-02-01T06:26:34;2.63;;;0.80;;
15067;SDS011;7633;60.024;18.770;2023-02-01T06:29:01;3.87;;;1.00;;
15067;SDS011;7633;60.024;18.770;2023-02-01T06:31:26;1.30;;;0.80;;
15067;SDS011;7633;60.024;18.770;2023-02-01T06:33:51;1.60;;;0.70;;
15067;SDS011;7633;60.024;18.770;2023-02-01T06:36:17;4.10;;;0.93;;
15067;SDS011;7633;60.024;18.770;2023-02-01T06:38:44;0.67;;;0.67;;
15067;SDS011;7633;60.024;18.770;2023-02-01T06:41:09;0.80;;;0.73;;
15067;SDS011;7633;60.024;18.770;2023-02-01T06:43:34;0.93;;;0.80;;
15067;SDS011;7633;60.024;18.770;2023-02-01T06:46:01;0.80;;;0.70;;
15067;SDS011;7633;60.024;18.770;2023-02-01T06:48:26;1.30;;;0.80;;
15067;SDS011;7633;60.024;18.770;2023-02-01T06:50:52;1.13;;;0.70;;
15067;SDS011;7633;60.024;18.770;2023-02-01T06:53:17;1.60;;;0.83;;
15067;SDS011;7633;60.024;18.770;2023-02-01T06:55:50;2.03;;;0.90;;
15067;SDS011;7633;60.024;18.770;2023-02-01T06:58:16;1.33;;;0.80;;
15067;SDS011;7633;60.024;18.770;2023-02-01T07:00:41;1.00;;;0.70;;
15067;SDS011;7633;60.024;18.770;2023-02-01T07:03:06;1.93;;;0.80;;
15067;SDS011;7633;60.024;18.770;2023-02-01T07:05:32;1.43;;;0.70;;
15067;SDS011;7633;60.024;18.770;2023-02-01T07:07:57;1.63;;;0.83;;
15067;SDS011;7633;60.024;18.770;2023-02-01T07:10:22;2.63;;;0.77;;
15067;SDS011;7633;60.024;18.770;2023-02-01T07:12:48;1.33;;;0.80;;
15067;SDS011;7633;60.024;18.770;2023-02-01T07:15:13;1.63;;;0.80;;
15067;SDS011;7633;60.024;18.770;2023-02-01T07:17:38;2.33;;;0.90;;
15067;SDS011;7633;60.024;18.770;2023-02-01T07:20:04;1.07;;;0.57;;
15067;SDS011;7633;60.024;18.770;2023-02-01T07:22:29;1.87;;;0.60;;
15067;SDS011;7633;60.024;18.770;2023-02-01T07:24:54;1.20;;;0.70;;
15067;SDS011;7633;60.024;18.770;2023-02-01T07:27:20;2.60;;;0.80;;
15067;SDS011;7633;60.024;18.770;2023-02-01T07:29:45;2.80;;;1.00;;
15067;SDS011;7633;60.024;18.770;2023-02-01T07:32:11;2.67;;;1.03;;
15067;SDS011;7633;60.024;18.770;2023-02-01T07:34:36;1.20;;;0.63;;
15067;SDS011;7633;60.024;18.770;2023-02-01T07:37:01;1.87;;;0.93;;
15067;SDS011;7633;60.024;18.770;2023-02-01T07:39:27;1.43;;;0.90;;
15067;SDS011;7633;60.024;18.770;2023-02-01T07:41:53;2.87;;;0.97;;
15067;SDS011;7633;60.024;18.770;2023-02-01T07:44:18;2.30;;;1.07;;
15067;SDS011;7633;60.024;18.770;2023-02-01T07:46:47;1.17;;;1.00;;
15067;SDS011;7633;60.024;18.770;2023-02-01T07:49:13;3.07;;;1.60;;
15067;SDS011;7633;60.024;18.770;2023-02-01T07:51:38;2.20;;;0.90;;
15067;SDS011;7633;60.024;18.770;2023-02-01T07:54:04;1.00;;;0.70;;
15067;SDS011;7633;60.024;18.770;2023-02-01T07:56:29;0.90;;;0.60;;
15067;SDS011;7633;60.024;18.770;2023-02-01T07:58:54;3.33;;;1.00;;
15067;SDS011;7633;60.024;18.770;2023-02-01T08:01:22;0.80;;;0.80;;
15067;SDS011;7633;60.024;18.770;2023-02-01T08:03:53;1.03;;;0.80;;
15067;SDS011;7633;60.024;18.770;2023-02-01T08:06:19;1.30;;;0.80;;
15067;SDS011;7633;60.024;18.770;2023-02-01T08:08:45;0.80;;;0.80;;
15067;SDS011;7633;60.024;18.770;2023-02-01T08:11:12;2.03;;;0.90;;
15067;SDS011;7633;60.024;18.770;2023-02-01T08:13:37;1.33;;;1.13;;
15067;SDS011;7633;60.024;18.770;2023-02-01T08:16:03;1.37;;;1.00;;
15067;SDS011;7633;60.024;18.770;2023-02-01T08:18:29;2.57;;;1.00;;
15067;SDS011;7633;60.024;18.770;2023-02-01T08:20:54;2.97;;;1.20;;
15067;SDS011;7633;60.024;18.770;2023-02-01T08:23:20;4.70;;;1.43;;
15067;SDS011;7633;60.024;18.770;2023-02-01T08:25:46;3.43;;;1.40;;
15067;SDS011;7633;60.024;18.770;2023-02-01T08:28:11;1.80;;;1.07;;
15067;SDS011;7633;60.024;18.770;2023-02-01T08:30:37;1.97;;;1.23;;
15067;SDS011;7633;60.024;18.770;2023-02-01T08:33:09;3.47;;;1.50;;
15067;SDS011;7633;60.024;18.770;2023-02-01T08:35:35;2.83;;;1.40;;
15067;SDS011;7633;60.024;18.770;2023-02-01T08:38:00;2.43;;;1.40;;
15067;SDS011;7633;60.024;18.770;2023-02-01T08:40:26;1.67;;;1.20;;
15067;SDS011;7633;60.024;18.770;2023-02-01T08:42:51;2.40;;;1.33;;
15067;SDS011;7633;60.024;18.770;2023-02-01T08:45:26;2.63;;;1.33;;
15067;SDS011;7633;60.024;18.770;2023-02-01T08:47:53;2.30;;;1.40;;
15067;SDS011;7633;60.024;18.770;2023-02-01T08:50:19;2.33;;;1.20;;
15067;SDS011;7633;60.024;18.770;2023-02-01T08:52:45;3.40;;;1.23;;
15067;SDS011;7633;60.024;18.770;2023-02-01T08:55:11;1.33;;;1.07;;
15067;SDS011;7633;60.024;18.770;2023-02-01T08:57:37;2.47;;;1.00;;
15067;SDS011;7633;60.024;18.770;2023-02-01T09:00:03;2.07;;;1.30;;
15067;SDS011;7633;60.024;18.770;2023-02-01T09:02:28;3.07;;;1.20;;
15067;SDS011;7633;60.024;18.770;2023-02-01T09:04:55;2.07;;;1.23;;
15067;SDS011;7633;60.024;18.770;2023-02-01T09:07:20;2.00;;;1.20;;
15067;SDS011;7633;60.024;18.770;2023-02-01T09:09:45;2.70;;;1.00;;
15067;SDS011;7633;60.024;18.770;2023-02-01T09:12:11;1.20;;;0.80;;
15067;SDS011;7633;60.024;18.770;2023-02-01T09:14:36;3.00;;;1.17;;
15067;SDS011;7633;60.024;18.770;2023-02-01T09:17:02;1.13;;;0.87;;
15067;SDS011;7633;60.024;18.770;2023-02-01T09:19:27;1.90;;;0.87;;
15067;SDS011;7633;60.024;18.770;2023-02-01T09:21:53;1.77;;;0.93;;
15067;SDS011;7633;60.024;18.770;2023-02-01T09:24:18;3.93;;;1.40;;
15067;SDS011;7633;60.024;18.770;2023-02-01T09:26:43;2.23;;;1.40;;
15067;SDS011;7633;60.024;18.770;2023-02-01T09:29:09;2.43;;;1.20;;
15067;SDS011;7633;60.024;18.770;2023-02-01T09:31:37;1.17;;;0.90;;
15067;SDS011;7633;60.024;18.770;2023-02-01T09:34:03;4.30;;;1.77;;
15067;SDS011;7633;60.024;18.770;2023-02-01T09:36:28;2.70;;;1.30;;
15067;SDS011;7633;60.024;18.770;2023-02-01T09:38:54;2.67;;;1.20;;
15067;SDS011;7633;60.024;18.770;2023-02-01T09:48:38;1.93;;;1.30;;
15067;SDS011;7633;60.024;18.770;2023-02-01T09:51:12;2.20;;;1.27;;
15067;SDS011;7633;60.024;18.770;2023-02-01T09:53:38;1.57;;;1.10;;
15067;SDS011;7633;60.024;18.770;2023-02-01T09:56:18;1.53;;;1.00;;
15067;SDS011;7633;60.024;18.770;2023-02-01T09:58:55;2.60;;;1.30;;
15067;SDS011;7633;60.024;18.770;2023-02-01T10:01:25;3.27;;;1.40;;
15067;SDS011;7633;60.024;18.770;2023-02-01T10:03:57;3.20;;;1.50;;
15067;SDS011;7633;60.024;18.770;2023-02-01T10:11:39;2.50;;;1.20;;
15067;SDS011;7633;60.024;18.770;2023-02-01T10:24:52;2.03;;;1.10;;
15067;SDS011;7633;60.024;18.770;2023-02-01T10:27:27;1.10;;;0.90;;
15067;SDS011;7633;60.024;18.770;2023-02-01T10:29:55;2.37;;;0.90;;
15067;SDS011;7633;60.024;18.770;2023-02-01T10:32:24;2.03;;;1.20;;
15067;SDS011;7633;60.024;18.770;2023-02-01T10:34:57;1.70;;;1.23;;
15067;SDS011;7633;60.024;18.770;2023-02-01T10:37:24;1.57;;;0.80;;
15067;SDS011;7633;60.024;18.770;2023-02-01T10:39:55;2.67;;;0.90;;
15067;SDS011;7633;60.024;18.770;2023-02-01T10:42:24;2.43;;;1.10;;
15067;SDS011;7633;60.024;18.770;2023-02-01T10:44:50;1.50;;;0.87;;
15067;SDS011;7633;60.024;18.770;2023-02-01T10:47:15;2.23;;;1.20;;
15067;SDS011;7633;60.024;18.770;2023-02-01T10:54:38;2.40;;;0.87;;
15067;SDS011;7633;60.024;18.770;2023-02-01T10:57:08;0.77;;;0.60;;
15067;SDS011;7633;60.024;18.770;2023-02-01T10:59:33;1.37;;;0.93;;
15067;SDS011;7633;60.024;18.770;2023-02-01T11:02:02;2.70;;;0.70;;
15067;SDS011;7633;60.024;18.770;2023-02-01T11:04:32;1.30;;;0.80;;
15067;SDS011;7633;60.024;18.770;2023-02-01T11:09:32;1.27;;;0.80;;
15067;SDS011;7633;60.024;18.770;2023-02-01T11:11:59;0.90;;;0.70;;
15067;SDS011;7633;60.024;18.770;2023-02-01T11:16:54;1.37;;;0.77;;
15067;SDS011;7633;60.024;18.770;2023-02-01T11:19:20;1.00;;;0.80;;
15067;SDS011;7633;60.024;18.770;2023-02-01T11:21:49;2.07;;;1.10;;
15067;SDS011;7633;60.024;18.770;2023-02-01T11:24:33;2.63;;;0.93;;
15067;SDS011;7633;60.024;18.770;2023-02-01T11:27:02;2.37;;;1.30;;
15067;SDS011;7633;60.024;18.770;2023-02-01T11:29:38;1.93;;;1.53;;
15067;SDS011;7633;60.024;18.770;2023-02-01T11:32:04;3.33;;;1.50;;
15067;SDS011;7633;60.024;18.770;2023-02-01T11:37:34;1.97;;;1.47;;
15067;SDS011;7633;60.024;18.770;2023-02-01T11:40:04;2.57;;;1.77;;
15067;SDS011;7633;60.024;18.770;2023-02-01T11:42:53;2.63;;;1.37;;
15067;SDS011;7633;60.024;18.770;2023-02-01T11:45:20;2.93;;;1.57;;
15067;SDS011;7633;60.024;18.770;2023-02-01T11:47:51;2.83;;;1.83;;
15067;SDS011;7633;60.024;18.770;2023-02-01T11:50:18;3.43;;;1.93;;
15067;SDS011;7633;60.024;18.770;2023-02-01T11:55:31;3.30;;;1.90;;
15067;SDS011;7633;60.024;18.770;2023-02-01T11:58:11;3.13;;;2.50;;
15067;SDS011;7633;60.024;18.770;2023-02-01T12:05:37;2.33;;;1.80;;
15067;SDS011;7633;60.024;18.770;2023-02-01T12:08:07;2.87;;;1.77;;
15067;SDS011;7633;60.024;18.770;2023-02-01T12:18:27;1.90;;;1.20;;
15067;SDS011;7633;60.024;18.770;2023-02-01T12:33:52;2.67;;;1.35;;
15067;SDS011;7633;60.024;18.770;2023-02-01T12:39:14;1.73;;;1.40;;
15067;SDS011;7633;60.024;18.770;2023-02-01T12:41:47;1.35;;;1.15;;
15067;SDS011;7633;60.024;18.770;2023-02-01T12:44:29;1.95;;;1.40;;
15067;SDS011;7633;60.024;18.770;2023-02-01T12:46:57;1.95;;;1.75;;
15067;SDS011;7633;60.024;18.770;2023-02-01T12:49:27;1.60;;;1.40;;
15067;SDS011;7633;60.024;18.770;2023-02-01T12:51:55;1.63;;;1.20;;
15067;SDS011;7633;60.024;18.770;2023-02-01T13:04:32;1.27;;;0.93;;
15067;SDS011;7633;60.024;18.770;2023-02-01T13:07:04;2.43;;;1.00;;
15067;SDS011;7633;60.024;18.770;2023-02-01T13:09:33;2.07;;;1.00;;
15067;SDS011;7633;60.024;18.770;2023-02-01T13:12:04;1.70;;;1.30;;
15067;SDS011;7633;60.024;18.770;2023-02-01T13:16:59;1.90;;;1.20;;
15067;SDS011;7633;60.024;18.770;2023-02-01T13:22:03;1.90;;;0.93;;
15067;SDS011;7633;60.024;18.770;2023-02-01T13:26:58;1.50;;;1.00;;
15067;SDS011;7633;60.024;18.770;2023-02-01T13:29:23;2.50;;;1.30;;
15067;SDS011;7633;60.024;18.770;2023-02-01T13:34:38;2.87;;;1.10;;
15067;SDS011;7633;60.024;18.770;2023-02-01T13:42:18;2.77;;;1.30;;
15067;SDS011;7633;60.024;18.770;2023-02-01T13:44:49;0.80;;;0.70;;
15067;SDS011;7633;60.024;18.770;2023-02-01T13:47:35;2.37;;;1.00;;
15067;SDS011;7633;60.024;18.770;2023-02-01T13:53:01;1.13;;;0.93;;
15067;SDS011;7633;60.024;18.770;2023-02-01T13:56:13;1.23;;;0.90;;
15067;SDS011;7633;60.024;18.770;2023-02-01T13:58:15;2.10;;;1.00;;
15067;SDS011;7633;60.024;18.770;2023-02-01T14:00:41;1.00;;;0.80;;
15067;SDS011;7633;60.024;18.770;2023-02-01T14:03:13;2.03;;;0.87;;
15067;SDS011;7633;60.024;18.770;2023-02-01T14:13:31;1.97;;;0.80;;
15067;SDS011;7633;60.024;18.770;2023-02-01T14:26:23;1.83;;;1.03;;
15067;SDS011;7633;60.024;18.770;2023-02-01T14:29:35;1.87;;;1.20;;
15067;SDS011;7633;60.024;18.770;2023-02-01T14:31:37;1.83;;;1.30;;
15067;SDS011;7633;60.024;18.770;2023-02-01T14:34:10;2.87;;;1.20;;
15067;SDS011;7633;60.024;18.770;2023-02-01T14:36:40;2.20;;;1.47;;
15067;SDS011;7633;60.024;18.770;2023-02-01T14:39:18;2.50;;;1.50;;
15067;SDS011;7633;60.024;18.770;2023-02-01T14:41:43;2.17;;;1.40;;
15067;SDS011;7633;60.024;18.770;2023-02-01T14:49:19;2.77;;;1.43;;
15067;SDS011;7633;60.024;18.770;2023-02-01T14:51:44;1.47;;;1.23;;
15067;SDS011;7633;60.024;18.770;2023-02-01T14:54:11;2.27;;;1.53;;
15067;SDS011;7633;60.024;18.770;2023-02-01T14:56:38;2.33;;;1.40;;
15067;SDS011;7633;60.024;18.770;2023-02-01T14:59:07;2.53;;;1.20;;
15067;SDS011;7633;60.024;18.770;2023-02-01T15:01:35;3.33;;;1.80;;
15067;SDS011;7633;60.024;18.770;2023-02-01T15:06:50;2.73;;;1.17;;
15067;SDS011;7633;60.024;18.770;2023-02-01T15:09:37;2.63;;;1.27;;
15067;SDS011;7633;60.024;18.770;2023-02-01T15:14:31;1.77;;;1.30;;
15067;SDS011;7633;60.024;18.770;2023-02-01T15:16:57;2.27;;;1.40;;
15067;SDS011;7633;60.024;18.770;2023-02-01T15:19:23;1.80;;;1.17;;
15067;SDS011;7633;60.024;18.770;2023-02-01T15:21:51;6.00;;;1.70;;
15067;SDS011;7633;60.024;18.770;2023-02-01T15:24:19;1.93;;;1.27;;
15067;SDS011;7633;60.024;18.770;2023-02-01T15:26:45;1.50;;;1.20;;
15067;SDS011;7633;60.024;18.770;2023-02-01T15:29:11;1.10;;;1.00;;
15067;SDS011;7633;60.024;18.770;2023-02-01T15:31:38;3.00;;;1.20;;
15067;SDS011;7633;60.024;18.770;2023-02-01T15:34:04;2.53;;;1.20;;
15067;SDS011;7633;60.024;18.770;2023-02-01T15:36:29;2.07;;;1.50;;
15067;SDS011;7633;60.024;18.770;2023-02-01T15:41:53;1.63;;;1.40;;
15067;SDS011;7633;60.024;18.770;2023-02-01T15:44:20;3.50;;;1.60;;
15067;SDS011;7633;60.024;18.770;2023-02-01T15:46:47;2.00;;;1.40;;
15067;SDS011;7633;60.024;18.770;2023-02-01T15:51:51;2.60;;;1.40;;
15067;SDS011;7633;60.024;18.770;2023-02-01T15:54:28;2.13;;;1.33;;
15067;SDS011;7633;60.024;18.770;2023-02-01T15:56:56;2.63;;;1.20;;
15067;SDS011;7633;60.024;18.770;2023-02-01T15:59:24;2.70;;;1.30;;
15067;SDS011;7633;60.024;18.770;2023-02-01T16:01:53;2.60;;;1.30;;
15067;SDS011;7633;60.024;18.770;2023-02-01T16:06:51;2.10;;;1.30;;
15067;SDS011;7633;60.024;18.770;2023-02-01T16:09:22;1.87;;;1.43;;
15067;SDS011;7633;60.024;18.770;2023-02-01T16:12:32;2.93;;;1.77;;
15067;SDS011;7633;60.024;18.770;2023-02-01T16:14:37;2.07;;;1.40;;
15067;SDS011;7633;60.024;18.770;2023-02-01T16:17:03;4.10;;;1.30;;
15067;SDS011;7633;60.024;18.770;2023-02-01T16:19:28;2.63;;;1.57;;
15067;SDS011;7633;60.024;18.770;2023-02-01T16:21:57;3.03;;;1.80;;
15067;SDS011;7633;60.024;18.770;2023-02-01T16:24:23;2.30;;;1.60;;
15067;SDS011;7633;60.024;18.770;2023-02-01T16:26:50;3.53;;;1.77;;
15067;SDS011;7633;60.024;18.770;2023-02-01T16:29:16;3.10;;;2.10;;
15067;SDS011;7633;60.024;18.770;2023-02-01T16:31:41;1.80;;;1.13;;
15067;SDS011;7633;60.024;18.770;2023-02-01T16:34:10;3.07;;;1.80;;
15067;SDS011;7633;60.024;18.770;2023-02-01T16:36:38;3.90;;;2.20;;
15067;SDS011;7633;60.024;18.770;2023-02-01T16:39:03;4.47;;;2.23;;
15067;SDS011;7633;60.024;18.770;2023-02-01T16:41:29;3.53;;;1.97;;
15067;SDS011;7633;60.024;18.770;2023-02-01T16:43:54;3.00;;;2.33;;
15067;SDS011;7633;60.024;18.770;2023-02-01T16:46:21;3.03;;;2.07;;
15067;SDS011;7633;60.024;18.770;2023-02-01T16:48:53;6.63;;;2.97;;
15067;SDS011;7633;60.024;18.770;2023-02-01T16:51:19;4.50;;;2.43;;
15067;SDS011;7633;60.024;18.770;2023-02-01T16:53:45;5.60;;;2.73;;
15067;SDS011;7633;60.024;18.770;2023-02-01T16:56:17;2.80;;;2.20;;
15067;SDS011;7633;60.024;18.770;2023-02-01T16:58:44;3.83;;;2.23;;
15067;SDS011;7633;60.024;18.770;2023-02-01T17:01:13;5.63;;;3.13;;
15067;SDS011;7633;60.024;18.770;2023-02-01T17:03:38;3.37;;;2.50;;
15067;SDS011;7633;60.024;18.770;2023-02-01T17:06:04;3.30;;;2.00;;
15067;SDS011;7633;60.024;18.770;2023-02-01T17:08:34;2.73;;;2.10;;
15067;SDS011;7633;60.024;18.770;2023-02-01T17:11:00;2.77;;;2.13;;
15067;SDS011;7633;60.024;18.770;2023-02-01T17:13:26;3.03;;;2.13;;
15067;SDS011;7633;60.024;18.770;2023-02-01T17:15:56;3.83;;;1.90;;
15067;SDS011;7633;60.024;18.770;2023-02-01T17:18:22;2.70;;;2.00;;
15067;SDS011;7633;60.024;18.770;2023-02-01T17:20:50;2.97;;;1.80;;
15067;SDS011;7633;60.024;18.770;2023-02-01T17:23:17;3.33;;;2.13;;
15067;SDS011;7633;60.024;18.770;2023-02-01T17:25:43;3.37;;;2.00;;
15067;SDS011;7633;60.024;18.770;2023-02-01T17:28:08;4.97;;;2.00;;
15067;SDS011;7633;60.024;18.770;2023-02-01T17:30:33;3.30;;;2.13;;
15067;SDS011;7633;60.024;18.770;2023-02-01T17:32:59;2.70;;;1.87;;
15067;SDS011;7633;60.024;18.770;2023-02-01T17:35:25;2.93;;;2.10;;